Muskoka Airport
CYQA : now visible

Airfield :











YOU CAN JOIN US ON...

 
LOGIN :

Register | Disclaimer

   EN    FR    IT 

 









Legend :    VFR   Marginal VFR   IFR   Intensive IFR   Very Intensive IFR
Visi :
Ceiling :
>= 8 km
>= 3000ft
5 to 8 km
1000 to 3000 ft
1500m to 5 km
500 to 1000 ft
800 to 1500m
200 to 500 ft
< 800m
< 200 ft
Symbols :   Thunderstorms  Fog  Heavy snow  Heavy precipitations  Wind > 20 kt






- Airport Elevation : 925 ft
- IATA code : YQA


CYQA - Muskoka

CURRENT METAR :
  • 170301Z AUTO 29007KT 9SM OVC029 M06/M12 A3005 RMK SLP193

EXPIRED METARs :
  • 170247Z AUTO 31008KT 9SM -SN OVC027 M06/M11 A3005 RMK SLP193
  • 170204Z AUTO 31008KT 9SM OVC027 M06/M11 A3004 RMK SLP189
  • 170104Z AUTO 31006KT 9SM -SN BKN029 OVC042 M05/M10 A3002 RMK SLP181
  • 170056Z AUTO 30005KT 250V340 9SM BKN029 OVC042 M05/M10 A3002 RMK SLP181

Expired Forecast.



MET'MAP, your aeronautical weather chart ! - Copyright ORBIFLY December 2007 - Disclaimer

ORBIFLY MET'MAP TEAM :

Programming & Development : Alexandra Zaïnal
Concept & original design : Baudouin d'Aumeries
Assistance for programming : Marc-Olivier Méhu
Technical & hardware support : Manuel Goepfert

Contact : metmap@orbifly.com




SOURCES & CREDITS :

   NOAA       Earth
Advisory